createdAt,value
2018-09-10T00:02:15.960Z,16.10
2018-09-10T00:04:44.498Z,16.10
2018-09-10T00:07:12.981Z,16.10
2018-09-10T00:09:41.508Z,16.10
2018-09-10T00:12:09.954Z,16.10
2018-09-10T00:14:38.419Z,16.10
2018-09-10T00:17:06.877Z,16.10
2018-09-10T00:19:35.359Z,16.10
2018-09-10T00:22:03.801Z,16.10
2018-09-10T00:24:32.301Z,16.00
2018-09-10T00:27:00.745Z,16.00
2018-09-10T00:29:29.199Z,16.10
2018-09-10T00:31:57.625Z,16.10
2018-09-10T00:34:26.071Z,16.10
2018-09-10T00:36:54.527Z,16.10
2018-09-10T00:39:22.965Z,16.10
2018-09-10T00:41:51.415Z,16.00
2018-09-10T00:44:19.869Z,16.00
2018-09-10T00:46:48.283Z,16.00
2018-09-10T00:49:16.733Z,16.00
2018-09-10T00:51:45.187Z,16.00
2018-09-10T00:54:13.622Z,15.90
2018-09-10T00:56:42.035Z,15.90
2018-09-10T00:59:10.522Z,15.90
2018-09-10T01:01:38.966Z,15.90
2018-09-10T01:04:07.401Z,15.90
2018-09-10T01:06:35.889Z,15.90
2018-09-10T01:09:06.019Z,15.90
2018-09-10T01:11:34.467Z,15.90
2018-09-10T01:14:02.922Z,15.90
2018-09-10T01:16:31.356Z,15.90
2018-09-10T01:18:59.799Z,15.90
2018-09-10T01:21:28.297Z,15.80
2018-09-10T01:23:56.756Z,15.80
2018-09-10T01:26:25.201Z,15.80
2018-09-10T01:28:53.658Z,15.80
2018-09-10T01:31:22.104Z,15.70
2018-09-10T01:33:55.974Z,15.70
2018-09-10T01:36:24.401Z,15.70
2018-09-10T01:38:52.824Z,15.70
2018-09-10T01:41:21.270Z,15.60
2018-09-10T01:43:49.702Z,15.60
2018-09-10T01:46:18.126Z,15.50
2018-09-10T01:48:46.542Z,15.50
2018-09-10T01:51:14.986Z,15.50
2018-09-10T01:53:43.498Z,15.50
2018-09-10T01:56:11.954Z,15.40
2018-09-10T01:58:40.710Z,15.40
2018-09-10T02:01:09.182Z,15.40
2018-09-10T02:03:37.600Z,15.40
2018-09-10T02:06:06.059Z,15.40
2018-09-10T02:08:34.524Z,15.40
2018-09-10T02:11:02.989Z,15.40
2018-09-10T02:13:31.427Z,15.40
2018-09-10T02:15:59.839Z,15.50
2018-09-10T02:18:28.275Z,15.40
2018-09-10T02:20:56.752Z,15.40
2018-09-10T02:23:25.225Z,15.30
2018-09-10T02:25:53.717Z,15.30
2018-09-10T02:28:22.182Z,15.30
2018-09-10T02:30:50.629Z,15.30
2018-09-10T02:33:19.107Z,15.30
2018-09-10T02:35:47.579Z,15.30
2018-09-10T02:38:16.034Z,15.20
2018-09-10T02:40:44.501Z,15.20
2018-09-10T02:43:12.977Z,15.20
2018-09-10T02:45:41.437Z,15.20
2018-09-10T02:48:09.885Z,15.10
2018-09-10T02:50:38.295Z,15.10
2018-09-10T02:53:06.719Z,15.10
2018-09-10T02:55:35.162Z,15.10
2018-09-10T02:58:03.663Z,15.00
2018-09-10T03:00:32.088Z,15.00
2018-09-10T03:03:00.525Z,15.00
2018-09-10T03:05:29.001Z,15.00
2018-09-10T03:07:57.411Z,15.00
2018-09-10T03:10:25.844Z,15.00
2018-09-10T03:12:55.047Z,15.00
2018-09-10T03:15:23.632Z,15.00
2018-09-10T03:17:52.599Z,14.90
2018-09-10T03:20:21.215Z,14.90
2018-09-10T03:22:49.681Z,14.90
2018-09-10T03:25:18.176Z,14.90
2018-09-10T03:27:46.644Z,14.90
2018-09-10T03:30:15.070Z,14.80
2018-09-10T03:32:43.522Z,14.90
2018-09-10T03:35:12.048Z,14.80
2018-09-10T03:37:40.518Z,14.80
2018-09-10T03:40:09.042Z,14.80
2018-09-10T03:42:37.531Z,14.70
2018-09-10T03:45:06.833Z,14.70
2018-09-10T03:47:35.243Z,14.60
2018-09-10T03:50:03.755Z,14.60
2018-09-10T03:52:32.206Z,14.60
2018-09-10T03:55:00.639Z,14.60
2018-09-10T03:57:29.100Z,14.60
2018-09-10T03:59:57.513Z,14.60
2018-09-10T04:02:25.969Z,14.60
2018-09-10T04:04:54.431Z,14.60
2018-09-10T04:07:22.853Z,14.50
2018-09-10T04:09:51.285Z,14.50
2018-09-10T04:12:19.692Z,14.40
2018-09-10T04:14:48.175Z,14.40
2018-09-10T04:17:16.683Z,14.40
2018-09-10T04:19:45.084Z,14.40
2018-09-10T04:22:13.499Z,14.40
2018-09-10T04:24:41.947Z,14.40
2018-09-10T04:27:10.422Z,14.40
2018-09-10T04:29:38.863Z,14.40
2018-09-10T04:32:07.320Z,14.50
2018-09-10T04:34:35.767Z,14.50
2018-09-10T04:37:04.258Z,14.60
2018-09-10T04:39:32.687Z,14.60
2018-09-10T04:42:01.147Z,14.50
2018-09-10T04:44:29.619Z,14.50
2018-09-10T04:46:58.049Z,14.50
2018-09-10T04:49:27.629Z,14.50
2018-09-10T04:52:00.039Z,14.40
2018-09-10T04:54:28.505Z,14.40
2018-09-10T04:56:56.989Z,14.40
2018-09-10T04:59:25.451Z,14.40
2018-09-10T05:01:53.890Z,14.40
2018-09-10T05:04:22.457Z,14.40
2018-09-10T05:06:51.065Z,14.30
2018-09-10T05:09:19.976Z,14.30
2018-09-10T05:11:49.160Z,14.20
2018-09-10T05:14:17.867Z,14.20
2018-09-10T05:16:46.378Z,14.20
2018-09-10T05:19:16.996Z,14.20
2018-09-10T05:21:48.139Z,14.20
2018-09-10T05:24:16.521Z,14.20
2018-09-10T05:26:44.946Z,14.20
2018-09-10T05:29:13.820Z,14.10
2018-09-10T05:31:43.719Z,14.10
2018-09-10T05:34:13.025Z,14.20
2018-09-10T05:36:43.689Z,14.20
2018-09-10T05:39:13.893Z,14.20
2018-09-10T05:41:42.421Z,14.20
2018-09-10T05:44:11.066Z,14.20
2018-09-10T05:46:39.624Z,14.30
2018-09-10T05:49:08.061Z,14.30
2018-09-10T05:51:36.628Z,14.40
2018-09-10T05:54:05.112Z,14.50
2018-09-10T05:56:33.614Z,14.50
2018-09-10T05:59:02.025Z,14.60
2018-09-10T06:01:30.455Z,14.60
2018-09-10T06:03:58.919Z,14.70
2018-09-10T06:06:27.526Z,14.70
2018-09-10T06:08:55.958Z,14.80
2018-09-10T06:11:24.399Z,14.90
2018-09-10T06:13:52.949Z,15.00
2018-09-10T06:16:21.522Z,15.20
2018-09-10T06:18:50.023Z,15.30
2018-09-10T06:21:18.486Z,15.30
2018-09-10T06:23:46.927Z,15.50
2018-09-10T06:26:15.397Z,15.60
2018-09-10T06:28:43.857Z,15.80
2018-09-10T06:31:12.339Z,16.00
2018-09-10T06:33:40.805Z,16.10
2018-09-10T06:36:09.321Z,16.20
2018-09-10T06:38:37.807Z,16.20
2018-09-10T06:41:06.471Z,16.30
2018-09-10T06:43:35.010Z,16.50
2018-09-10T06:46:03.436Z,16.50
2018-09-10T06:48:35.278Z,16.50
2018-09-10T06:51:05.658Z,16.60
2018-09-10T06:53:34.211Z,16.60
2018-09-10T06:56:03.995Z,16.80
2018-09-10T06:58:32.672Z,17.00
2018-09-10T07:01:01.218Z,17.10
2018-09-10T07:03:29.653Z,17.10
2018-09-10T07:05:58.172Z,17.10
2018-09-10T07:08:26.576Z,17.20
2018-09-10T07:10:55.024Z,17.40
2018-09-10T07:13:23.932Z,17.50
2018-09-10T07:15:52.458Z,17.70
2018-09-10T07:18:20.922Z,17.90
2018-09-10T07:20:49.397Z,18.00
2018-09-10T07:23:17.837Z,18.50
2018-09-10T07:25:46.274Z,19.10
2018-09-10T07:28:14.723Z,19.90
2018-09-10T07:30:43.223Z,20.90
2018-09-10T07:33:11.798Z,21.70
2018-09-10T07:35:40.862Z,22.30
2018-09-10T07:38:09.375Z,22.20
2018-09-10T07:40:37.837Z,22.20
2018-09-10T07:43:06.287Z,22.10
2018-09-10T07:45:34.770Z,21.60
2018-09-10T07:48:03.245Z,21.40
2018-09-10T07:50:31.687Z,21.50
2018-09-10T07:53:00.171Z,21.40
2018-09-10T07:55:28.638Z,21.60
2018-09-10T07:57:57.132Z,21.70
2018-09-10T08:00:25.569Z,21.50
2018-09-10T08:02:54.017Z,21.30
2018-09-10T08:05:22.556Z,21.10
2018-09-10T08:07:51.190Z,20.90
2018-09-10T08:10:19.661Z,20.90
2018-09-10T08:12:48.151Z,21.30
2018-09-10T08:15:16.699Z,21.90
2018-09-10T08:17:45.185Z,22.30
2018-09-10T08:20:13.699Z,22.20
2018-09-10T08:22:42.126Z,21.80
2018-09-10T08:25:10.635Z,21.40
2018-09-10T08:27:39.015Z,21.20
2018-09-10T08:30:07.880Z,21.00
2018-09-10T08:32:36.413Z,20.80
2018-09-10T08:35:04.912Z,20.90
2018-09-10T08:37:33.444Z,21.20
2018-09-10T08:40:01.902Z,21.50
2018-09-10T08:42:30.370Z,21.90
2018-09-10T08:44:58.899Z,22.50
2018-09-10T08:47:27.354Z,22.80
2018-09-10T08:49:55.861Z,22.60
2018-09-10T08:52:24.344Z,22.40
2018-09-10T08:54:53.065Z,22.50
2018-09-10T08:57:21.286Z,22.90
2018-09-10T08:59:49.740Z,23.30
2018-09-10T09:02:18.202Z,23.60
2018-09-10T09:04:46.634Z,24.00
2018-09-10T09:07:15.098Z,24.20
2018-09-10T09:09:43.570Z,24.50
2018-09-10T09:12:12.030Z,25.40
2018-09-10T09:14:40.497Z,26.00
2018-09-10T09:17:08.947Z,26.50
2018-09-10T09:19:37.406Z,26.20
2018-09-10T09:22:05.882Z,26.00
2018-09-10T09:24:34.319Z,25.90
2018-09-10T09:27:02.736Z,25.80
2018-09-10T09:29:31.203Z,25.50
2018-09-10T09:31:59.645Z,25.40
2018-09-10T09:34:32.321Z,25.30
2018-09-10T09:37:06.059Z,25.50
2018-09-10T09:39:39.966Z,25.70
2018-09-10T09:42:13.968Z,25.80
2018-09-10T09:45:51.539Z,25.80
2018-09-10T09:48:20.009Z,25.70
2018-09-10T09:50:48.526Z,26.50
2018-09-10T09:53:17.099Z,27.80
2018-09-10T09:55:45.672Z,28.60
2018-09-10T09:58:14.108Z,29.00
2018-09-10T10:00:47.824Z,30.40
2018-09-10T10:03:18.313Z,31.00
2018-09-10T10:05:46.766Z,29.80
2018-09-10T10:08:15.210Z,28.80
2018-09-10T10:10:43.657Z,28.80
2018-09-10T10:13:12.082Z,29.30
2018-09-10T10:15:40.546Z,29.60
2018-09-10T10:18:08.990Z,30.20
2018-09-10T10:20:37.458Z,30.20
2018-09-10T10:23:05.951Z,29.40
2018-09-10T10:25:34.561Z,29.90
2018-09-10T10:28:03.053Z,31.00
2018-09-10T10:30:31.452Z,30.40
2018-09-10T10:32:59.906Z,30.70
2018-09-10T10:35:28.326Z,31.00
2018-09-10T10:37:56.791Z,28.50
2018-09-10T10:40:25.284Z,26.20
2018-09-10T10:42:53.724Z,25.30
2018-09-10T10:45:22.179Z,26.30
2018-09-10T10:47:50.610Z,27.70
2018-09-10T10:50:19.074Z,28.30
2018-09-10T10:52:47.524Z,28.50
2018-09-10T10:55:16.014Z,29.40
2018-09-10T10:57:44.470Z,29.60
2018-09-10T11:00:12.930Z,28.30
2018-09-10T11:02:41.368Z,26.60
2018-09-10T11:05:09.802Z,25.70
2018-09-10T11:07:38.245Z,25.00
2018-09-10T11:10:07.592Z,24.70
2018-09-10T11:12:36.061Z,25.90
2018-09-10T11:15:04.831Z,29.10
2018-09-10T11:17:33.269Z,29.40
2018-09-10T11:20:01.733Z,27.40
2018-09-10T11:22:30.161Z,26.20
2018-09-10T11:24:58.635Z,25.10
2018-09-10T11:27:27.095Z,24.40
2018-09-10T11:29:55.521Z,24.00
2018-09-10T11:32:24.025Z,23.50
2018-09-10T11:34:52.484Z,23.60
2018-09-10T11:37:20.997Z,24.40
2018-09-10T11:39:49.490Z,26.50
2018-09-10T11:42:17.967Z,28.60
2018-09-10T11:44:46.379Z,29.50
2018-09-10T11:47:14.817Z,30.90
2018-09-10T11:49:43.365Z,33.10
2018-09-10T11:52:11.814Z,33.30
2018-09-10T11:54:40.272Z,32.00
2018-09-10T11:57:08.730Z,33.20
2018-09-10T11:59:37.168Z,33.00
2018-09-10T12:02:06.901Z,30.60
2018-09-10T12:04:35.270Z,28.50
2018-09-10T12:07:03.773Z,28.60
2018-09-10T12:09:32.902Z,28.10
2018-09-10T12:12:01.345Z,27.20
2018-09-10T12:14:29.818Z,27.00
2018-09-10T12:16:58.245Z,26.40
2018-09-10T12:19:26.699Z,26.10
2018-09-10T12:21:55.145Z,25.70
2018-09-10T12:24:23.593Z,25.10
2018-09-10T12:26:52.026Z,24.50
2018-09-10T12:29:20.457Z,24.50
2018-09-10T12:31:48.897Z,25.80
2018-09-10T12:34:17.317Z,28.70
2018-09-10T12:36:45.759Z,30.70
2018-09-10T12:39:14.170Z,31.20
2018-09-10T12:41:42.652Z,31.20
2018-09-10T12:44:11.082Z,29.80
2018-09-10T12:46:39.588Z,27.90
2018-09-10T12:49:07.955Z,26.40
2018-09-10T12:51:36.395Z,25.80
2018-09-10T12:54:04.931Z,25.40
2018-09-10T12:56:33.352Z,25.40
2018-09-10T12:59:01.816Z,26.70
2018-09-10T13:01:30.258Z,27.50
2018-09-10T13:04:05.238Z,27.20
2018-09-10T13:06:33.736Z,27.40
2018-09-10T13:09:02.192Z,27.90
2018-09-10T13:11:30.738Z,26.70
2018-09-10T13:13:59.186Z,25.40
2018-09-10T13:16:27.675Z,24.40
2018-09-10T13:18:56.106Z,24.30
2018-09-10T13:21:31.188Z,26.90
2018-09-10T13:23:59.618Z,29.20
2018-09-10T13:26:28.044Z,30.00
2018-09-10T13:28:56.492Z,30.90
2018-09-10T13:31:24.966Z,31.30
2018-09-10T13:33:53.414Z,31.00
2018-09-10T13:36:21.885Z,29.60
2018-09-10T13:38:50.324Z,28.70
2018-09-10T13:41:18.770Z,29.00
2018-09-10T13:43:47.181Z,28.70
2018-09-10T13:46:15.679Z,28.20
2018-09-10T13:48:44.160Z,29.20
2018-09-10T13:51:12.612Z,27.80
2018-09-10T13:53:41.050Z,27.00
2018-09-10T13:56:09.469Z,26.00
2018-09-10T13:58:37.927Z,26.40
2018-09-10T14:01:06.357Z,28.10
2018-09-10T14:03:34.810Z,29.80
2018-09-10T14:06:03.295Z,30.10
2018-09-10T14:08:31.732Z,30.30
2018-09-10T14:11:00.161Z,30.10
2018-09-10T14:13:28.613Z,29.30
2018-09-10T14:15:57.064Z,27.30
2018-09-10T14:18:25.502Z,25.90
2018-09-10T14:20:54.056Z,26.00
2018-09-10T14:23:22.566Z,26.30
2018-09-10T14:25:51.201Z,26.50
2018-09-10T14:28:19.675Z,26.60
2018-09-10T14:30:48.136Z,26.40
2018-09-10T14:33:16.584Z,26.90
2018-09-10T14:35:45.078Z,28.00
2018-09-10T14:38:13.533Z,28.10
2018-09-10T14:40:41.986Z,28.60
2018-09-10T14:43:10.713Z,28.70
2018-09-10T14:45:39.082Z,27.80
2018-09-10T14:48:07.532Z,26.90
2018-09-10T14:50:36.045Z,26.60
2018-09-10T14:53:04.492Z,26.50
2018-09-10T14:55:33.735Z,26.00
2018-09-10T14:58:02.163Z,25.60
2018-09-10T15:00:30.692Z,25.50
2018-09-10T15:02:59.176Z,25.90
2018-09-10T15:05:27.646Z,27.30
2018-09-10T15:07:56.088Z,28.20
2018-09-10T15:10:24.550Z,27.00
2018-09-10T15:12:52.997Z,27.40
2018-09-10T15:15:21.476Z,27.80
2018-09-10T15:17:49.965Z,27.50
2018-09-10T15:20:18.439Z,27.20
2018-09-10T15:22:46.885Z,27.20
2018-09-10T15:25:15.327Z,27.30
2018-09-10T15:27:43.759Z,26.60
2018-09-10T15:30:12.206Z,27.00
2018-09-10T15:32:40.662Z,25.90
2018-09-10T15:35:09.088Z,24.70
2018-09-10T15:37:37.535Z,23.70
2018-09-10T15:40:06.106Z,22.90
2018-09-10T15:42:34.555Z,22.50
2018-09-10T15:45:03.321Z,22.40
2018-09-10T15:47:31.783Z,22.50
2018-09-10T15:50:00.242Z,22.50
2018-09-10T15:52:28.685Z,22.30
2018-09-10T15:54:57.125Z,22.20
2018-09-10T15:57:25.644Z,22.20
2018-09-10T15:59:54.138Z,22.10
2018-09-10T16:02:22.688Z,21.90
2018-09-10T16:04:51.293Z,21.80
2018-09-10T16:07:19.858Z,21.80
2018-09-10T16:09:48.277Z,21.80
2018-09-10T16:12:16.825Z,21.70
2018-09-10T16:14:45.664Z,21.70
2018-09-10T16:17:14.182Z,21.60
2018-09-10T16:19:42.621Z,21.40
2018-09-10T16:22:11.042Z,21.20
2018-09-10T16:24:39.498Z,21.20
2018-09-10T16:27:08.042Z,21.10
2018-09-10T16:29:36.489Z,20.90
2018-09-10T16:32:04.960Z,20.80
2018-09-10T16:34:33.404Z,20.70
2018-09-10T16:37:01.915Z,20.80
2018-09-10T16:39:30.432Z,20.80
2018-09-10T16:41:58.989Z,20.80
2018-09-10T16:44:27.604Z,20.70
2018-09-10T16:47:01.291Z,20.70
2018-09-10T16:49:29.889Z,20.60
2018-09-10T16:51:58.395Z,20.40
2018-09-10T16:54:29.540Z,20.30
2018-09-10T16:56:58.442Z,20.30
2018-09-10T16:59:26.923Z,20.30
2018-09-10T17:01:55.449Z,20.30
2018-09-10T17:04:23.925Z,20.20
2018-09-10T17:06:52.370Z,20.10
2018-09-10T17:09:20.918Z,20.00
2018-09-10T17:11:49.399Z,20.00
2018-09-10T17:14:17.876Z,20.00
2018-09-10T17:16:46.379Z,19.90
2018-09-10T17:19:14.895Z,19.90
2018-09-10T17:21:43.405Z,19.80
2018-09-10T17:24:11.912Z,19.70
2018-09-10T17:26:40.425Z,19.70
2018-09-10T17:29:09.941Z,19.70
2018-09-10T17:31:41.744Z,19.60
2018-09-10T17:34:10.559Z,19.50
2018-09-10T17:36:41.290Z,19.40
2018-09-10T17:39:09.770Z,19.40
2018-09-10T17:41:38.247Z,19.30
2018-09-10T17:44:08.519Z,19.20
2018-09-10T17:46:38.791Z,19.20
2018-09-10T17:49:07.302Z,19.10
2018-09-10T17:51:35.799Z,19.10
2018-09-10T17:54:04.230Z,19.00
2018-09-10T17:56:32.764Z,19.00
2018-09-10T17:59:01.303Z,18.90
2018-09-10T18:01:29.943Z,18.90
2018-09-10T18:03:58.411Z,18.90
2018-09-10T18:06:26.857Z,18.80
2018-09-10T18:08:55.273Z,18.80
2018-09-10T18:11:23.757Z,18.80
2018-09-10T18:13:52.192Z,18.80
2018-09-10T18:16:20.638Z,18.80
2018-09-10T18:18:49.190Z,18.80
2018-09-10T18:21:17.638Z,18.80
2018-09-10T18:23:46.123Z,18.70
2018-09-10T18:26:14.591Z,18.60
2018-09-10T18:28:43.058Z,18.50
2018-09-10T18:31:11.506Z,18.50
2018-09-10T18:33:40.117Z,18.50
2018-09-10T18:36:08.661Z,18.40
2018-09-10T18:38:37.251Z,18.30
2018-09-10T18:41:05.803Z,18.30
2018-09-10T18:43:34.253Z,18.30
2018-09-10T18:46:02.723Z,18.20
2018-09-10T18:48:31.245Z,18.20
2018-09-10T18:50:59.753Z,18.10
2018-09-10T18:53:28.247Z,18.10
2018-09-10T18:55:56.713Z,18.00
2018-09-10T18:58:25.199Z,17.90
2018-09-10T19:00:53.624Z,17.90
2018-09-10T19:03:22.082Z,17.80
2018-09-10T19:05:50.533Z,17.70
2018-09-10T19:08:19.047Z,17.70
2018-09-10T19:10:47.569Z,17.70
2018-09-10T19:13:16.039Z,17.70
2018-09-10T19:15:44.537Z,17.70
2018-09-10T19:18:13.010Z,17.70
2018-09-10T19:20:41.491Z,17.60
2018-09-10T19:23:09.985Z,17.60
2018-09-10T19:25:38.416Z,17.60
2018-09-10T19:28:06.894Z,17.60
2018-09-10T19:30:35.336Z,17.60
2018-09-10T19:33:03.826Z,17.60
2018-09-10T19:35:32.278Z,17.50
2018-09-10T19:38:00.739Z,17.50
2018-09-10T19:40:29.240Z,17.50
2018-09-10T19:42:57.724Z,17.40
2018-09-10T19:45:26.165Z,17.40
2018-09-10T19:47:54.636Z,17.30
2018-09-10T19:50:23.099Z,17.30
2018-09-10T19:52:51.576Z,17.20
2018-09-10T19:55:20.087Z,17.20
2018-09-10T19:57:48.566Z,17.20
2018-09-10T20:00:17.014Z,17.20
2018-09-10T20:02:45.528Z,17.20
2018-09-10T20:05:14.004Z,17.10
2018-09-10T20:07:42.496Z,17.10
2018-09-10T20:10:10.993Z,17.00
2018-09-10T20:12:39.530Z,17.00
2018-09-10T20:15:08.161Z,16.90
2018-09-10T20:17:36.582Z,16.90
2018-09-10T20:20:05.913Z,16.90
2018-09-10T20:22:34.365Z,16.90
2018-09-10T20:25:02.961Z,16.80
2018-09-10T20:27:31.701Z,16.80
2018-09-10T20:30:00.187Z,16.80
2018-09-10T20:32:28.660Z,16.70
2018-09-10T20:34:57.103Z,16.70
2018-09-10T20:37:25.546Z,16.70
2018-09-10T20:39:53.972Z,16.70
2018-09-10T20:42:22.448Z,16.70
2018-09-10T20:44:50.896Z,16.70
2018-09-10T20:47:19.353Z,16.70
2018-09-10T20:49:47.900Z,16.70
2018-09-10T20:52:16.468Z,16.70
2018-09-10T20:54:44.970Z,16.60
2018-09-10T20:57:13.395Z,16.60
2018-09-10T20:59:41.860Z,16.50
2018-09-10T21:02:10.298Z,16.50
2018-09-10T21:04:38.757Z,16.40
2018-09-10T21:07:07.203Z,16.40
2018-09-10T21:09:35.618Z,16.40
2018-09-10T21:12:04.133Z,16.40
2018-09-10T21:14:32.592Z,16.30
2018-09-10T21:17:01.016Z,16.30
2018-09-10T21:19:29.469Z,16.30
2018-09-10T21:21:57.948Z,16.30
2018-09-10T21:24:26.354Z,16.20
2018-09-10T21:26:54.778Z,16.20
2018-09-10T21:29:23.235Z,16.20
2018-09-10T21:31:51.696Z,16.30
2018-09-10T21:34:20.131Z,16.20
2018-09-10T21:36:48.578Z,16.20
2018-09-10T21:39:17.026Z,16.20
2018-09-10T21:41:45.467Z,16.20
2018-09-10T21:44:13.914Z,16.10
2018-09-10T21:46:42.367Z,16.00
2018-09-10T21:49:10.824Z,16.00
2018-09-10T21:51:39.289Z,16.00
2018-09-10T21:54:07.753Z,15.90
2018-09-10T21:56:36.206Z,16.00
2018-09-10T21:59:04.635Z,16.00
2018-09-10T22:01:33.064Z,15.90
2018-09-10T22:04:01.502Z,15.90
2018-09-10T22:06:29.941Z,15.90
2018-09-10T22:08:58.412Z,15.90
2018-09-10T22:11:26.849Z,15.90
2018-09-10T22:13:55.341Z,16.00
2018-09-10T22:16:23.802Z,16.00
2018-09-10T22:18:52.244Z,16.00
2018-09-10T22:21:20.685Z,16.00
2018-09-10T22:23:49.130Z,16.00
2018-09-10T22:26:17.561Z,16.00
2018-09-10T22:28:46.026Z,15.90
2018-09-10T22:31:14.451Z,15.80
2018-09-10T22:33:42.905Z,15.80
2018-09-10T22:36:11.384Z,15.80
2018-09-10T22:38:39.818Z,15.80
2018-09-10T22:41:08.253Z,15.70
2018-09-10T22:43:36.749Z,15.70
2018-09-10T22:46:05.198Z,15.70
2018-09-10T22:48:33.620Z,15.70
2018-09-10T22:51:02.089Z,15.70
2018-09-10T22:53:30.538Z,15.70
2018-09-10T22:55:58.955Z,15.70
2018-09-10T22:58:27.402Z,15.70
2018-09-10T23:00:55.875Z,15.70
2018-09-10T23:03:24.422Z,15.70
2018-09-10T23:05:52.879Z,15.70
2018-09-10T23:08:21.306Z,15.70
2018-09-10T23:10:49.740Z,15.70
2018-09-10T23:13:18.190Z,15.70
2018-09-10T23:15:46.622Z,15.70
2018-09-10T23:18:15.078Z,15.70
2018-09-10T23:20:43.514Z,15.60
2018-09-10T23:23:11.924Z,15.60
2018-09-10T23:25:40.360Z,15.60
2018-09-10T23:28:08.822Z,15.50
2018-09-10T23:30:37.301Z,15.50
2018-09-10T23:33:05.785Z,15.50
2018-09-10T23:35:34.217Z,15.50
2018-09-10T23:38:02.693Z,15.50
2018-09-10T23:40:31.137Z,15.40
2018-09-10T23:42:59.597Z,15.40
2018-09-10T23:45:28.039Z,15.30
2018-09-10T23:47:56.450Z,15.30
2018-09-10T23:50:24.905Z,15.30
2018-09-10T23:52:53.321Z,15.30
2018-09-10T23:55:21.798Z,15.30
2018-09-10T23:57:50.219Z,15.30
